Home   Weather   Switzerland   Uster   Past weeks
Flag for Switzerland

Past Weather in Uster, Zurich, Switzerland — Yesterday and Last 2 Weeks

Currently: 72 °F. Sunny. (Weather station: Zurich-Kloten, Switzerland). See more current weather

Past Weather in Uster — Graph

°F

Uster Temperature Yesterday

Maximum temperature yesterday: 88 °F (at 3:50 pm)
Minimum temperature yesterday: 57 °F (at 4:20 am)
Average temperature yesterday: 74 °F

High & Low Weather Summary for the Past Weeks

 TemperatureHumidityPressure
High88 °F (Jun 16, 4:50 pm)100% (Jun 5, 2:50 am)30.30 "Hg (Jun 5, 2:50 am)
Low50 °F (Jun 10, 5:50 am)24% (Jun 16, 4:20 pm)29.92 "Hg (Jun 17, 6:20 pm)
Average66 °F73%30.14 "Hg
* Reported Jun 3 7:20 am — Jun 18 7:20 am, Uster. Weather by CustomWeather, © 2021

Note: Actual official high and low records may vary slightly from our data, if they occured in-between our weather recording intervals... More about our weather records

Uster Weather History for the Previous 24 Hours

Scroll right to see more
 ConditionsComfort  
Time TempWeatherWind HumidityBarometerVisibility
7:20 am
Fri, Jun 18
70 °FSunny.1 mph73%30.01 "Hg10 mi
6:50 am68 °FSunny.2 mph73%30.01 "Hg10 mi
6:20 am66 °FSunny.2 mph78%30.01 "Hg10 mi
5:50 am66 °FSunny.2 mph78%29.98 "Hg10 mi
5:20 am68 °FPassing clouds.5 mph69%29.98 "HgN/A
4:50 am68 °FClear.5 mph69%29.98 "Hg10 mi
4:20 am70 °FClear.5 mph60%29.98 "Hg10 mi
3:50 am68 °FClear.2 mph69%29.98 "Hg10 mi
3:20 am68 °FMild.1 mph73%29.98 "HgN/A
2:50 am66 °FClear.2 mph78%29.98 "HgN/A
2:20 am68 °FMild.3 mph73%29.98 "HgN/A
1:50 am68 °FClear.6 mph78%29.98 "HgN/A
1:20 am66 °FClear.5 mph83%29.98 "Hg10 mi
12:50 am66 °FClear.5 mph83%29.95 "Hg10 mi
12:20 am66 °FClear.3 mph78%29.95 "Hg10 mi
11:50 pm
Thu, Jun 17
64 °FMild.2 mph83%29.95 "HgN/A
11:20 pm72 °FClear.1 mph65%29.95 "Hg10 mi
10:50 pm70 °FClear.5 mph73%29.92 "Hg10 mi
10:20 pm72 °FClear.7 mph69%29.92 "Hg10 mi
9:50 pm72 °FClear.6 mph69%29.92 "Hg10 mi
9:20 pm77 °FSunny.3 mph57%29.92 "Hg10 mi
8:50 pm82 °FSunny.5 mph42%29.92 "Hg10 mi
8:20 pm84 °FSunny.6 mph40%29.92 "Hg10 mi
7:50 pm86 °FSunny.7 mph40%29.92 "Hg10 mi
7:20 pm86 °FSunny.7 mph40%29.92 "Hg10 mi
6:50 pm86 °FPassing clouds.6 mph43%29.92 "HgN/A
6:20 pm88 °FPassing clouds.6 mph35%29.92 "HgN/A
5:50 pm88 °FPassing clouds.5 mph38%29.95 "HgN/A
5:20 pm88 °FSunny.7 mph35%29.95 "Hg10 mi
4:50 pm88 °FPassing clouds.5 mph40%29.95 "HgN/A
4:20 pm88 °FPassing clouds.3 mph40%29.95 "HgN/A
3:50 pm88 °FSunny.2 mph38%29.98 "Hg10 mi
3:20 pm86 °FPassing clouds.3 mph38%29.98 "HgN/A
2:50 pm84 °FPassing clouds.5 mph43%29.98 "HgN/A
2:20 pm86 °FPassing clouds.3 mph40%29.98 "HgN/A
1:50 pm84 °FSunny.2 mph51%29.98 "Hg10 mi
1:20 pm84 °FPassing clouds.3 mph51%29.98 "HgN/A
12:50 pm82 °FSunny.2 mph51%30.01 "Hg10 mi
12:20 pm82 °FSunny.2 mph48%30.01 "Hg10 mi
11:50 am81 °FSunny.2 mph51%30.01 "Hg10 mi
11:20 am79 °FPassing clouds.5 mph51%30.01 "HgN/A
10:50 am79 °FPassing clouds.3 mph54%30.01 "HgN/A
10:20 am75 °FSunny.3 mph57%30.01 "Hg10 mi
9:50 am75 °FSunny.3 mph57%30.01 "Hg10 mi
9:20 am73 °FSunny.2 mph65%30.01 "Hg10 mi
8:50 am70 °FSunny.2 mph69%30.01 "Hg10 mi
8:20 am70 °FSunny.1 mph64%30.01 "Hg10 mi
Weather by CustomWeather, © 2021

See weather overview